createdAt,value
2023-01-20T00:01:37.423Z,13.15
2023-01-20T00:06:39.647Z,13.17
2023-01-20T00:11:41.569Z,13.19
2023-01-20T00:16:43.751Z,13.18
2023-01-20T00:21:45.713Z,13.20
2023-01-20T00:26:47.581Z,13.17
2023-01-20T00:31:49.508Z,13.13
2023-01-20T00:36:51.707Z,13.18
2023-01-20T00:41:53.965Z,13.20
2023-01-20T00:46:56.122Z,13.25
2023-01-20T00:51:58.451Z,13.20
2023-01-20T00:57:00.478Z,13.28
2023-01-20T01:02:02.610Z,13.34
2023-01-20T01:07:04.760Z,13.30
2023-01-20T01:12:06.889Z,13.30
2023-01-20T01:17:09.066Z,13.23
2023-01-20T01:22:11.151Z,13.20
2023-01-20T01:27:13.327Z,13.27
2023-01-20T01:32:15.632Z,13.28
2023-01-20T01:37:17.789Z,13.21
2023-01-20T01:42:22.569Z,13.18
2023-01-20T01:47:24.743Z,13.32
2023-01-20T01:52:26.892Z,13.30
2023-01-20T01:57:31.120Z,13.38
2023-01-20T02:02:33.650Z,13.27
2023-01-20T02:07:36.320Z,13.24
2023-01-20T02:12:38.521Z,13.20
2023-01-20T02:17:54.193Z,13.27
2023-01-20T02:23:01.902Z,13.29
2023-01-20T02:28:16.061Z,13.33
2023-01-20T02:33:21.239Z,13.36
2023-01-20T02:38:36.385Z,13.32
2023-01-20T02:43:44.388Z,13.38
2023-01-20T02:48:46.647Z,13.42
2023-01-20T02:53:51.726Z,13.35
2023-01-20T02:59:03.514Z,13.36
2023-01-20T03:04:09.719Z,13.38
2023-01-20T03:09:14.712Z,13.39
2023-01-20T03:14:17.637Z,13.35
2023-01-20T03:19:20.784Z,13.43
2023-01-20T03:24:24.130Z,13.48
2023-01-20T03:29:26.236Z,13.45
2023-01-20T03:34:32.066Z,13.48
2023-01-20T03:39:34.990Z,13.44
2023-01-20T03:44:46.649Z,13.44
2023-01-20T03:49:48.706Z,13.42
2023-01-20T03:55:03.151Z,13.36
2023-01-20T04:00:07.036Z,13.31
2023-01-20T04:05:13.939Z,13.20
2023-01-20T04:10:17.606Z,13.00
2023-01-20T04:15:20.555Z,12.93
2023-01-20T04:20:24.760Z,12.75
2023-01-20T04:25:28.945Z,12.71
2023-01-20T04:30:31.261Z,12.73
2023-01-20T04:35:33.266Z,12.58
2023-01-20T04:40:35.656Z,12.59
2023-01-20T04:45:37.757Z,12.65
2023-01-20T04:50:40.743Z,12.59
2023-01-20T04:55:42.869Z,12.54
2023-01-20T05:00:44.987Z,12.56
2023-01-20T05:05:55.831Z,12.53
2023-01-20T05:10:58.019Z,12.47
2023-01-20T05:16:02.748Z,12.60
2023-01-20T05:21:05.496Z,12.68
2023-01-20T05:26:07.677Z,12.66
2023-01-20T05:31:09.978Z,12.74
2023-01-20T05:36:12.341Z,12.75
2023-01-20T05:41:14.633Z,12.82
2023-01-20T05:46:16.793Z,12.77
2023-01-20T05:51:18.818Z,12.82
2023-01-20T05:56:20.864Z,12.85
2023-01-20T06:01:23.038Z,12.86
2023-01-20T06:06:25.370Z,12.75
2023-01-20T06:11:27.330Z,12.82
2023-01-20T06:16:30.189Z,12.87
2023-01-20T06:21:32.290Z,12.93
2023-01-20T06:26:34.437Z,12.97
2023-01-20T06:31:36.705Z,12.93
2023-01-20T06:36:38.780Z,13.03
2023-01-20T06:41:41.177Z,13.12
2023-01-20T06:46:43.436Z,13.12
2023-01-20T06:51:48.220Z,13.15
2023-01-20T06:56:50.385Z,13.19
2023-01-20T07:01:53.132Z,13.30
2023-01-20T07:06:55.548Z,13.48
2023-01-20T07:30:19.877Z,13.19
2023-01-20T07:35:22.055Z,12.99
2023-01-20T07:40:24.201Z,13.01
2023-01-20T07:45:26.594Z,12.97
2023-01-20T07:50:28.870Z,13.05
2023-01-20T07:55:30.992Z,13.10
2023-01-20T08:00:33.102Z,12.92
2023-01-20T08:05:35.342Z,12.92
2023-01-20T08:10:37.717Z,13.02
2023-01-20T08:27:54.033Z,13.34
2023-01-20T08:32:56.627Z,13.36
2023-01-20T08:37:59.027Z,13.29
2023-01-20T08:43:01.652Z,13.23
2023-01-20T08:48:04.039Z,13.03
2023-01-20T08:53:06.174Z,12.96
2023-01-20T08:58:08.261Z,12.99
2023-01-20T09:03:11.068Z,13.12
2023-01-20T09:08:13.633Z,12.69
2023-01-20T09:13:15.969Z,12.58
2023-01-20T09:18:21.321Z,12.43
2023-01-20T09:23:23.385Z,11.07
2023-01-20T09:28:25.883Z,10.35
2023-01-20T09:33:28.156Z,9.95
2023-01-20T09:38:48.871Z,9.55
2023-01-20T09:44:05.364Z,9.51
2023-01-20T09:50:04.020Z,9.54
2023-01-20T09:55:17.405Z,9.61
2023-01-20T10:00:25.150Z,9.37
2023-01-20T10:05:37.710Z,9.33
2023-01-20T10:10:47.049Z,8.77
2023-01-20T10:15:54.304Z,7.87
2023-01-20T10:21:01.437Z,7.50
2023-01-20T10:26:38.372Z,7.21
2023-01-20T10:31:51.797Z,6.95
2023-01-20T10:37:03.995Z,6.94
2023-01-20T10:42:12.414Z,7.14
2023-01-20T10:47:26.159Z,7.31
2023-01-20T10:53:07.085Z,7.45
2023-01-20T10:58:12.281Z,7.73
2023-01-20T11:03:18.330Z,7.77
2023-01-20T11:08:27.859Z,8.20
2023-01-20T11:13:30.177Z,8.56
2023-01-20T11:18:33.074Z,8.99
2023-01-20T11:23:49.970Z,9.26
2023-01-20T11:28:58.799Z,9.67
2023-01-20T11:34:04.340Z,9.81
2023-01-20T11:39:09.018Z,9.62
2023-01-20T11:44:20.906Z,9.84
2023-01-20T11:49:23.377Z,10.18
2023-01-20T11:54:28.758Z,10.18
2023-01-20T11:59:35.231Z,9.94
2023-01-20T12:05:08.468Z,9.78
2023-01-20T12:10:28.787Z,9.60
2023-01-20T12:15:40.987Z,9.53
2023-01-20T12:21:01.736Z,9.51
2023-01-20T12:26:06.335Z,9.76
2023-01-20T12:31:11.465Z,9.77
2023-01-20T12:36:47.123Z,9.89
2023-01-20T12:42:10.462Z,9.88
2023-01-20T12:47:33.145Z,10.00
2023-01-20T12:52:41.505Z,10.09
2023-01-20T12:57:59.149Z,10.12
2023-01-20T13:03:30.752Z,10.00
2023-01-20T13:08:48.207Z,10.05
2023-01-20T13:14:08.755Z,9.84
2023-01-20T13:19:29.964Z,9.96
2023-01-20T13:24:32.712Z,10.02
2023-01-20T13:29:38.029Z,10.02
2023-01-20T13:34:40.680Z,9.89
2023-01-20T13:39:46.528Z,9.81
2023-01-20T13:45:14.967Z,9.71
2023-01-20T13:50:28.559Z,9.34
2023-01-20T13:55:50.260Z,9.15
2023-01-20T14:00:55.311Z,9.45
2023-01-20T14:06:02.914Z,9.34
2023-01-20T14:11:19.439Z,8.94
2023-01-20T14:16:31.411Z,8.42
2023-01-20T14:21:41.681Z,7.99
2023-01-20T14:26:43.857Z,7.85
2023-01-20T14:31:46.409Z,7.96
2023-01-20T14:36:48.921Z,7.76
2023-01-20T14:41:53.996Z,7.86
2023-01-20T14:47:02.457Z,7.80
2023-01-20T14:52:07.025Z,7.56
2023-01-20T14:57:21.616Z,7.48
2023-01-20T15:02:33.229Z,7.43
2023-01-20T15:07:37.294Z,7.32
2023-01-20T15:13:01.071Z,7.31
2023-01-20T15:18:16.267Z,7.27
2023-01-20T15:23:38.412Z,7.29
2023-01-20T15:28:44.829Z,7.23
2023-01-20T15:33:47.920Z,7.28
2023-01-20T15:38:51.185Z,7.37
2023-01-20T15:43:53.499Z,7.51
2023-01-20T15:48:55.687Z,7.72
2023-01-20T15:53:58.007Z,8.01
2023-01-20T15:59:00.289Z,8.14
2023-01-20T16:04:02.371Z,8.37
2023-01-20T16:09:16.428Z,8.51
2023-01-20T16:14:18.747Z,8.74
2023-01-20T16:19:21.052Z,8.95
2023-01-20T16:24:23.358Z,9.00
2023-01-20T16:29:25.723Z,9.38
2023-01-20T16:34:27.819Z,9.98
2023-01-20T16:39:30.316Z,10.00
2023-01-20T16:44:32.611Z,9.26
2023-01-20T16:49:34.950Z,9.39
2023-01-20T16:54:37.674Z,8.42
2023-01-20T16:59:39.844Z,8.58
2023-01-20T17:04:42.005Z,8.25
2023-01-20T17:09:44.433Z,8.30
2023-01-20T17:14:46.771Z,7.25
2023-01-20T17:19:49.207Z,6.17
2023-01-20T17:24:51.628Z,7.51
2023-01-20T17:29:53.932Z,6.17
2023-01-20T17:34:56.096Z,6.99
2023-01-20T17:40:00.240Z,6.47
2023-01-20T17:45:03.718Z,7.00
2023-01-20T17:50:06.163Z,6.82
2023-01-20T17:55:08.605Z,5.85
2023-01-20T18:00:11.409Z,6.25
2023-01-20T18:05:14.131Z,5.71
2023-01-20T18:10:17.560Z,5.08
2023-01-20T18:15:21.560Z,4.86
2023-01-20T18:20:24.130Z,4.62
2023-01-20T18:25:26.671Z,4.63
2023-01-20T18:30:28.773Z,4.74
2023-01-20T18:35:31.153Z,4.61
2023-01-20T18:40:33.668Z,4.60
2023-01-20T18:45:35.835Z,4.83
2023-01-20T18:50:38.000Z,4.70
2023-01-20T18:55:40.179Z,4.78
2023-01-20T19:00:42.736Z,4.88
2023-01-20T19:05:45.273Z,4.46
2023-01-20T19:10:47.701Z,4.73
2023-01-20T19:15:52.766Z,4.47
2023-01-20T19:20:54.879Z,4.56
2023-01-20T19:26:05.528Z,4.66
2023-01-20T19:31:10.403Z,4.48
2023-01-20T19:36:14.822Z,4.80
2023-01-20T19:41:19.443Z,4.85
2023-01-20T19:46:24.589Z,4.84
2023-01-20T19:51:27.812Z,4.70
2023-01-20T19:56:33.262Z,4.54
2023-01-20T20:01:37.134Z,4.93
2023-01-20T20:06:48.442Z,4.85
2023-01-20T20:11:52.911Z,4.89
2023-01-20T20:16:55.087Z,4.76
2023-01-20T20:21:58.857Z,4.59
2023-01-20T20:27:01.626Z,4.54
2023-01-20T20:32:04.258Z,4.71
2023-01-20T20:37:07.987Z,4.54
2023-01-20T20:42:10.331Z,4.51
2023-01-20T20:47:12.609Z,4.33
2023-01-20T20:52:14.698Z,4.53
2023-01-20T20:57:17.056Z,4.79
2023-01-20T21:02:19.463Z,4.52
2023-01-20T21:07:21.927Z,4.56
2023-01-20T21:12:24.431Z,4.65
2023-01-20T21:17:26.560Z,4.60
2023-01-20T21:22:28.771Z,4.73
2023-01-20T21:27:32.275Z,4.81
2023-01-20T21:32:34.716Z,4.69
2023-01-20T21:37:37.444Z,4.71
2023-01-20T21:42:39.665Z,4.39
2023-01-20T21:47:42.160Z,4.53
2023-01-20T21:52:47.341Z,4.48
2023-01-20T21:57:51.489Z,4.69
2023-01-20T22:02:53.908Z,4.53
2023-01-20T22:07:56.107Z,4.51
2023-01-20T22:12:58.462Z,4.60
2023-01-20T22:18:00.644Z,4.54
2023-01-20T22:23:03.266Z,4.74
2023-01-20T22:28:05.536Z,4.91
2023-01-20T22:33:07.875Z,4.60
2023-01-20T22:38:10.379Z,4.69
2023-01-20T22:43:12.617Z,4.46
2023-01-20T22:48:14.905Z,4.40
2023-01-20T22:53:18.016Z,4.11
2023-01-20T22:58:20.295Z,3.88
2023-01-20T23:03:22.690Z,3.69
2023-01-20T23:08:30.322Z,3.88
2023-01-20T23:13:32.886Z,3.52
2023-01-20T23:18:35.127Z,3.77
2023-01-20T23:23:37.485Z,3.72
2023-01-20T23:28:39.730Z,4.03
2023-01-20T23:33:43.610Z,3.96
2023-01-20T23:38:46.132Z,3.97
2023-01-20T23:43:48.864Z,3.89
2023-01-20T23:48:51.167Z,4.14
2023-01-20T23:53:53.474Z,4.06
